METAR - Iceland

Last updated 29.02.2024 - at. 22:28

SIGMET for the last six hours

BIRD SIGMET U02 VALID 292030/292300 BIRK- BIRD REYKJAVIK CTA SEV TURB OBS WI N6346 W03849 - N6418 W05446 - N7009 W05741 - N6615 W03250 - N6346 W03849 FL280/400 STNR NC

METAR from the last three hours

From October 1 2021, runway conditions will not appear in METAR messages.
Instead ISAVIA will show SNOWTAM here: SNOWTAM | Isavia.

AerodromeTimeMessage
BIAR2024-02-29 22.00METAR BIAR 292200Z 02007KT 9999 FEW027 BKN032 M04/M09 Q0997
BIAR2024-02-29 21.00METAR BIAR 292100Z 01007KT 330V040 9999 BKN028 M03/M08 Q0996
BIAR2024-02-29 20.00METAR BIAR 292000Z 33006KT 290V020 9999 -SHSN SCT028 BKN040 OVC048 M04/M07 Q0995
BIEG2024-02-29 22.00METAR BIEG 292200Z 01003KT 310V050 9999 BKN040 M05/M09 Q0995
BIEG2024-02-29 21.00METAR BIEG 292100Z 33009KT 9999 BKN038 M04/M08 Q0994
BIEG2024-02-29 20.00METAR BIEG 292000Z 02013KT 9999 OVC036 M03/M08 Q0992
BIKF2024-02-29 22.00METAR BIKF 292200Z 01011KT 9999 FEW027 BKN051 M02/M06 Q0996
BIKF2024-02-29 21.30METAR BIKF 292130Z 36009KT 9999 FEW027 SCT051 M03/M06 Q0995
BIKF2024-02-29 21.00METAR BIKF 292100Z 36010KT 9999 FEW027 SCT200 M02/M07 Q0995
BIKF2024-02-29 20.30METAR BIKF 292030Z 36012KT CAVOK M02/M06 Q0994
BIKF2024-02-29 20.00METAR BIKF 292000Z 36012KT CAVOK M02/M06 Q0994
BIKF2024-02-29 19.30METAR BIKF 291930Z 36012KT CAVOK M02/M07 Q0993
BIRK2024-02-29 22.00METAR BIRK 292200Z 35011KT CAVOK M02/M10 Q0996
BIRK2024-02-29 21.00METAR BIRK 292100Z 36014KT CAVOK M02/M10 Q0995
BIRK2024-02-29 20.00METAR BIRK 292000Z 34012KT CAVOK M02/M10 Q0993





Other related web sites


This website is built with Eplica CMS